sensor_id;sensor_type;location;lat;lon;timestamp;temperature;humidity
26964;DHT22;14521;48.148;-1.656;2024-01-25T00:00:04;18.80;97.50
26964;DHT22;14521;48.148;-1.656;2024-01-25T00:03:26;18.80;97.50
26964;DHT22;14521;48.148;-1.656;2024-01-25T00:06:48;18.80;97.50
26964;DHT22;14521;48.148;-1.656;2024-01-25T00:10:11;18.80;97.50
26964;DHT22;14521;48.148;-1.656;2024-01-25T00:13:33;18.80;97.50
26964;DHT22;14521;48.148;-1.656;2024-01-25T00:16:56;18.80;97.50
26964;DHT22;14521;48.148;-1.656;2024-01-25T00:20:18;18.80;97.40
26964;DHT22;14521;48.148;-1.656;2024-01-25T00:23:40;18.80;97.50
26964;DHT22;14521;48.148;-1.656;2024-01-25T00:27:03;18.70;97.50
26964;DHT22;14521;48.148;-1.656;2024-01-25T00:30:25;18.80;97.40
26964;DHT22;14521;48.148;-1.656;2024-01-25T00:33:48;18.70;97.40
26964;DHT22;14521;48.148;-1.656;2024-01-25T00:37:10;18.70;97.40
26964;DHT22;14521;48.148;-1.656;2024-01-25T00:40:33;18.70;97.50
26964;DHT22;14521;48.148;-1.656;2024-01-25T00:43:56;18.70;97.40
26964;DHT22;14521;48.148;-1.656;2024-01-25T00:47:18;18.70;97.50
26964;DHT22;14521;48.148;-1.656;2024-01-25T00:50:41;18.70;97.40
26964;DHT22;14521;48.148;-1.656;2024-01-25T00:54:03;18.70;97.40
26964;DHT22;14521;48.148;-1.656;2024-01-25T00:57:26;18.70;97.30
26964;DHT22;14521;48.148;-1.656;2024-01-25T01:00:48;18.70;97.30
26964;DHT22;14521;48.148;-1.656;2024-01-25T01:04:11;18.70;97.50
26964;DHT22;14521;48.148;-1.656;2024-01-25T01:07:34;18.70;97.50
26964;DHT22;14521;48.148;-1.656;2024-01-25T01:10:56;18.70;97.30
26964;DHT22;14521;48.148;-1.656;2024-01-25T01:14:19;18.70;97.50
26964;DHT22;14521;48.148;-1.656;2024-01-25T01:17:41;18.70;97.50
26964;DHT22;14521;48.148;-1.656;2024-01-25T01:21:04;18.70;97.50
26964;DHT22;14521;48.148;-1.656;2024-01-25T01:24:26;18.70;97.50
26964;DHT22;14521;48.148;-1.656;2024-01-25T01:27:49;18.70;97.50
26964;DHT22;14521;48.148;-1.656;2024-01-25T01:31:12;18.70;97.40
26964;DHT22;14521;48.148;-1.656;2024-01-25T01:34:34;18.70;97.40
26964;DHT22;14521;48.148;-1.656;2024-01-25T01:37:57;18.70;97.50
26964;DHT22;14521;48.148;-1.656;2024-01-25T01:41:19;18.70;97.50
26964;DHT22;14521;48.148;-1.656;2024-01-25T01:44:42;18.70;97.40
26964;DHT22;14521;48.148;-1.656;2024-01-25T01:48:04;18.70;97.50
26964;DHT22;14521;48.148;-1.656;2024-01-25T01:51:30;18.70;97.50
26964;DHT22;14521;48.148;-1.656;2024-01-25T01:54:53;18.70;97.50
26964;DHT22;14521;48.148;-1.656;2024-01-25T01:58:15;18.70;97.50
26964;DHT22;14521;48.148;-1.656;2024-01-25T02:01:39;18.70;97.50
26964;DHT22;14521;48.148;-1.656;2024-01-25T02:05:02;18.70;97.50
26964;DHT22;14521;48.148;-1.656;2024-01-25T02:08:24;18.70;97.50
26964;DHT22;14521;48.148;-1.656;2024-01-25T02:11:47;18.70;97.70
26964;DHT22;14521;48.148;-1.656;2024-01-25T02:15:09;18.70;97.40
26964;DHT22;14521;48.148;-1.656;2024-01-25T02:18:32;18.70;97.50
26964;DHT22;14521;48.148;-1.656;2024-01-25T02:21:57;18.70;97.40
26964;DHT22;14521;48.148;-1.656;2024-01-25T02:25:20;18.70;97.30
26964;DHT22;14521;48.148;-1.656;2024-01-25T02:28:43;18.70;97.30
26964;DHT22;14521;48.148;-1.656;2024-01-25T02:32:05;18.70;97.40
26964;DHT22;14521;48.148;-1.656;2024-01-25T02:35:28;18.70;97.30
26964;DHT22;14521;48.148;-1.656;2024-01-25T02:38:50;18.70;97.00
26964;DHT22;14521;48.148;-1.656;2024-01-25T02:42:12;18.50;96.00
26964;DHT22;14521;48.148;-1.656;2024-01-25T02:45:36;18.40;95.40
26964;DHT22;14521;48.148;-1.656;2024-01-25T02:48:58;18.40;95.70
26964;DHT22;14521;48.148;-1.656;2024-01-25T02:52:21;18.30;95.90
26964;DHT22;14521;48.148;-1.656;2024-01-25T02:55:44;18.30;96.00
26964;DHT22;14521;48.148;-1.656;2024-01-25T02:59:06;18.30;96.10
26964;DHT22;14521;48.148;-1.656;2024-01-25T03:02:28;18.30;96.10
26964;DHT22;14521;48.148;-1.656;2024-01-25T03:05:53;18.30;96.10
26964;DHT22;14521;48.148;-1.656;2024-01-25T03:09:16;18.30;96.10
26964;DHT22;14521;48.148;-1.656;2024-01-25T03:12:38;18.30;96.10
26964;DHT22;14521;48.148;-1.656;2024-01-25T03:16:00;18.30;96.10
26964;DHT22;14521;48.148;-1.656;2024-01-25T03:19:27;18.30;96.20
26964;DHT22;14521;48.148;-1.656;2024-01-25T03:22:49;18.30;96.10
26964;DHT22;14521;48.148;-1.656;2024-01-25T03:26:12;18.30;96.10
26964;DHT22;14521;48.148;-1.656;2024-01-25T03:29:34;18.30;96.50
26964;DHT22;14521;48.148;-1.656;2024-01-25T03:32:56;18.30;96.50
26964;DHT22;14521;48.148;-1.656;2024-01-25T03:36:19;18.30;96.10
26964;DHT22;14521;48.148;-1.656;2024-01-25T03:39:41;18.20;96.10
26964;DHT22;14521;48.148;-1.656;2024-01-25T03:43:04;18.20;96.10
26964;DHT22;14521;48.148;-1.656;2024-01-25T03:46:40;18.30;96.10
26964;DHT22;14521;48.148;-1.656;2024-01-25T03:50:02;18.20;96.00
26964;DHT22;14521;48.148;-1.656;2024-01-25T03:53:25;18.30;96.10
26964;DHT22;14521;48.148;-1.656;2024-01-25T03:56:47;18.30;96.10
26964;DHT22;14521;48.148;-1.656;2024-01-25T04:00:10;18.30;96.10
26964;DHT22;14521;48.148;-1.656;2024-01-25T04:03:33;18.20;96.10
26964;DHT22;14521;48.148;-1.656;2024-01-25T04:06:55;18.20;96.10
26964;DHT22;14521;48.148;-1.656;2024-01-25T04:10:17;18.20;96.10
26964;DHT22;14521;48.148;-1.656;2024-01-25T04:13:40;18.40;97.30
26964;DHT22;14521;48.148;-1.656;2024-01-25T04:17:03;18.50;97.40
26964;DHT22;14521;48.148;-1.656;2024-01-25T04:20:25;18.50;97.20
26964;DHT22;14521;48.148;-1.656;2024-01-25T04:23:48;18.60;97.20
26964;DHT22;14521;48.148;-1.656;2024-01-25T04:27:10;18.60;97.10
26964;DHT22;14521;48.148;-1.656;2024-01-25T04:30:33;18.60;97.10
26964;DHT22;14521;48.148;-1.656;2024-01-25T04:33:55;18.60;97.00
26964;DHT22;14521;48.148;-1.656;2024-01-25T04:37:18;18.70;96.90
26964;DHT22;14521;48.148;-1.656;2024-01-25T04:40:40;18.70;96.90
26964;DHT22;14521;48.148;-1.656;2024-01-25T04:44:03;18.60;95.30
26964;DHT22;14521;48.148;-1.656;2024-01-25T04:47:26;18.50;96.00
26964;DHT22;14521;48.148;-1.656;2024-01-25T04:50:48;18.40;96.00
26964;DHT22;14521;48.148;-1.656;2024-01-25T04:54:11;18.50;96.00
26964;DHT22;14521;48.148;-1.656;2024-01-25T04:57:34;18.50;96.10
26964;DHT22;14521;48.148;-1.656;2024-01-25T05:00:57;18.50;96.30
26964;DHT22;14521;48.148;-1.656;2024-01-25T05:04:20;18.50;96.10
26964;DHT22;14521;48.148;-1.656;2024-01-25T05:07:42;18.50;96.10
26964;DHT22;14521;48.148;-1.656;2024-01-25T05:11:04;18.40;96.10
26964;DHT22;14521;48.148;-1.656;2024-01-25T05:14:28;18.50;96.30
26964;DHT22;14521;48.148;-1.656;2024-01-25T05:17:51;18.50;96.00
26964;DHT22;14521;48.148;-1.656;2024-01-25T05:21:13;18.50;96.10
26964;DHT22;14521;48.148;-1.656;2024-01-25T05:24:36;18.40;95.90
26964;DHT22;14521;48.148;-1.656;2024-01-25T05:27:59;18.50;96.00
26964;DHT22;14521;48.148;-1.656;2024-01-25T05:31:21;18.50;95.90
26964;DHT22;14521;48.148;-1.656;2024-01-25T05:34:44;18.50;95.90
26964;DHT22;14521;48.148;-1.656;2024-01-25T05:38:06;18.40;95.90
26964;DHT22;14521;48.148;-1.656;2024-01-25T05:41:31;18.50;96.00
26964;DHT22;14521;48.148;-1.656;2024-01-25T05:44:53;18.50;95.80
26964;DHT22;14521;48.148;-1.656;2024-01-25T05:48:16;18.50;95.80
26964;DHT22;14521;48.148;-1.656;2024-01-25T05:51:38;18.50;95.70
26964;DHT22;14521;48.148;-1.656;2024-01-25T05:55:01;18.50;95.60
26964;DHT22;14521;48.148;-1.656;2024-01-25T05:58:26;18.50;95.60
26964;DHT22;14521;48.148;-1.656;2024-01-25T06:01:49;18.50;95.60
26964;DHT22;14521;48.148;-1.656;2024-01-25T06:05:12;18.60;95.40
26964;DHT22;14521;48.148;-1.656;2024-01-25T06:08:34;18.60;95.50
26964;DHT22;14521;48.148;-1.656;2024-01-25T06:11:58;18.60;95.30
26964;DHT22;14521;48.148;-1.656;2024-01-25T06:15:20;18.60;95.20
26964;DHT22;14521;48.148;-1.656;2024-01-25T06:18:42;18.60;95.20
26964;DHT22;14521;48.148;-1.656;2024-01-25T06:22:04;18.60;95.20
26964;DHT22;14521;48.148;-1.656;2024-01-25T06:25:27;18.60;95.10
26964;DHT22;14521;48.148;-1.656;2024-01-25T06:28:53;18.70;95.10
26964;DHT22;14521;48.148;-1.656;2024-01-25T06:32:15;18.70;95.10
26964;DHT22;14521;48.148;-1.656;2024-01-25T06:35:47;18.70;95.00
26964;DHT22;14521;48.148;-1.656;2024-01-25T06:39:10;18.70;95.00
26964;DHT22;14521;48.148;-1.656;2024-01-25T06:42:32;18.70;95.10
26964;DHT22;14521;48.148;-1.656;2024-01-25T06:45:55;18.80;95.20
26964;DHT22;14521;48.148;-1.656;2024-01-25T06:49:17;18.90;95.30
26964;DHT22;14521;48.148;-1.656;2024-01-25T06:52:39;18.90;95.20
26964;DHT22;14521;48.148;-1.656;2024-01-25T06:56:02;18.90;95.10
26964;DHT22;14521;48.148;-1.656;2024-01-25T06:59:24;19.00;95.50
26964;DHT22;14521;48.148;-1.656;2024-01-25T07:02:47;19.00;95.90
26964;DHT22;14521;48.148;-1.656;2024-01-25T07:06:10;19.00;95.50
26964;DHT22;14521;48.148;-1.656;2024-01-25T07:09:32;19.00;95.40
26964;DHT22;14521;48.148;-1.656;2024-01-25T07:12:54;19.00;95.30
26964;DHT22;14521;48.148;-1.656;2024-01-25T07:16:18;19.00;95.40
26964;DHT22;14521;48.148;-1.656;2024-01-25T07:19:42;19.10;96.00
26964;DHT22;14521;48.148;-1.656;2024-01-25T07:23:23;19.10;96.10
26964;DHT22;14521;48.148;-1.656;2024-01-25T07:26:46;19.10;96.10
26964;DHT22;14521;48.148;-1.656;2024-01-25T07:30:09;19.10;96.20
26964;DHT22;14521;48.148;-1.656;2024-01-25T07:33:31;19.20;96.30
26964;DHT22;14521;48.148;-1.656;2024-01-25T07:36:54;19.10;96.40
26964;DHT22;14521;48.148;-1.656;2024-01-25T07:40:16;19.10;95.50
26964;DHT22;14521;48.148;-1.656;2024-01-25T07:43:39;19.00;94.70
26964;DHT22;14521;48.148;-1.656;2024-01-25T07:47:02;19.00;94.80
26964;DHT22;14521;48.148;-1.656;2024-01-25T07:50:25;18.90;95.20
26964;DHT22;14521;48.148;-1.656;2024-01-25T07:53:47;18.90;95.30
26964;DHT22;14521;48.148;-1.656;2024-01-25T07:57:09;18.80;95.50
26964;DHT22;14521;48.148;-1.656;2024-01-25T08:00:32;18.90;95.50
26964;DHT22;14521;48.148;-1.656;2024-01-25T08:03:54;18.70;95.20
26964;DHT22;14521;48.148;-1.656;2024-01-25T08:07:18;18.60;95.60
26964;DHT22;14521;48.148;-1.656;2024-01-25T08:10:40;18.50;95.80
26964;DHT22;14521;48.148;-1.656;2024-01-25T08:14:02;18.50;96.30
26964;DHT22;14521;48.148;-1.656;2024-01-25T08:17:25;18.70;96.10
26964;DHT22;14521;48.148;-1.656;2024-01-25T08:20:49;18.80;95.70
26964;DHT22;14521;48.148;-1.656;2024-01-25T08:24:12;18.80;95.50
26964;DHT22;14521;48.148;-1.656;2024-01-25T08:27:35;18.80;95.40
26964;DHT22;14521;48.148;-1.656;2024-01-25T08:31:16;18.80;95.40
26964;DHT22;14521;48.148;-1.656;2024-01-25T08:34:38;18.70;95.40
26964;DHT22;14521;48.148;-1.656;2024-01-25T08:38:00;18.80;95.40
26964;DHT22;14521;48.148;-1.656;2024-01-25T08:41:22;18.80;95.40
26964;DHT22;14521;48.148;-1.656;2024-01-25T08:44:46;18.70;95.30
26964;DHT22;14521;48.148;-1.656;2024-01-25T08:48:11;18.70;95.20
26964;DHT22;14521;48.148;-1.656;2024-01-25T08:51:36;18.70;95.20
26964;DHT22;14521;48.148;-1.656;2024-01-25T08:54:58;18.70;95.30
26964;DHT22;14521;48.148;-1.656;2024-01-25T08:58:21;18.70;95.20
26964;DHT22;14521;48.148;-1.656;2024-01-25T09:01:43;18.70;95.30
26964;DHT22;14521;48.148;-1.656;2024-01-25T09:05:06;18.70;95.70
26964;DHT22;14521;48.148;-1.656;2024-01-25T09:08:29;18.70;95.50
26964;DHT22;14521;48.148;-1.656;2024-01-25T09:11:51;18.70;95.40
26964;DHT22;14521;48.148;-1.656;2024-01-25T09:15:13;18.70;95.40
26964;DHT22;14521;48.148;-1.656;2024-01-25T09:18:36;18.70;95.40
26964;DHT22;14521;48.148;-1.656;2024-01-25T09:21:58;18.70;95.70
26964;DHT22;14521;48.148;-1.656;2024-01-25T09:25:23;18.70;95.50
26964;DHT22;14521;48.148;-1.656;2024-01-25T09:28:46;18.70;95.50
26964;DHT22;14521;48.148;-1.656;2024-01-25T09:32:09;18.70;95.40
26964;DHT22;14521;48.148;-1.656;2024-01-25T09:35:31;18.70;95.40
26964;DHT22;14521;48.148;-1.656;2024-01-25T09:38:54;18.70;95.40
26964;DHT22;14521;48.148;-1.656;2024-01-25T09:42:18;18.70;95.60
26964;DHT22;14521;48.148;-1.656;2024-01-25T09:45:20;18.70;95.70
26964;DHT22;14521;48.148;-1.656;2024-01-25T09:48:23;18.70;95.90
26964;DHT22;14521;48.148;-1.656;2024-01-25T09:51:26;18.80;95.80
26964;DHT22;14521;48.148;-1.656;2024-01-25T09:54:34;18.80;95.90
26964;DHT22;14521;48.148;-1.656;2024-01-25T09:57:36;18.80;96.00
26964;DHT22;14521;48.148;-1.656;2024-01-25T10:00:39;18.80;96.00
26964;DHT22;14521;48.148;-1.656;2024-01-25T10:03:45;18.80;95.90
26964;DHT22;14521;48.148;-1.656;2024-01-25T10:06:48;18.80;95.90
26964;DHT22;14521;48.148;-1.656;2024-01-25T10:09:50;18.80;96.00
26964;DHT22;14521;48.148;-1.656;2024-01-25T10:12:55;18.80;96.00
26964;DHT22;14521;48.148;-1.656;2024-01-25T10:15:58;18.80;96.00
26964;DHT22;14521;48.148;-1.656;2024-01-25T10:19:02;18.90;96.00
26964;DHT22;14521;48.148;-1.656;2024-01-25T10:22:09;18.90;95.90
26964;DHT22;14521;48.148;-1.656;2024-01-25T10:25:36;18.90;95.70
26964;DHT22;14521;48.148;-1.656;2024-01-25T10:29:00;18.90;95.40
26964;DHT22;14521;48.148;-1.656;2024-01-25T10:32:24;18.90;95.70
26964;DHT22;14521;48.148;-1.656;2024-01-25T10:35:46;18.90;95.80
26964;DHT22;14521;48.148;-1.656;2024-01-25T10:39:13;18.90;95.80
26964;DHT22;14521;48.148;-1.656;2024-01-25T10:42:37;19.00;96.00
26964;DHT22;14521;48.148;-1.656;2024-01-25T10:46:00;19.00;95.90
26964;DHT22;14521;48.148;-1.656;2024-01-25T10:49:26;19.00;95.80
26964;DHT22;14521;48.148;-1.656;2024-01-25T10:52:49;19.00;95.90
26964;DHT22;14521;48.148;-1.656;2024-01-25T10:56:11;19.00;95.90
26964;DHT22;14521;48.148;-1.656;2024-01-25T10:59:35;19.00;95.80
26964;DHT22;14521;48.148;-1.656;2024-01-25T11:02:57;19.00;95.80
26964;DHT22;14521;48.148;-1.656;2024-01-25T11:06:21;19.00;95.80
26964;DHT22;14521;48.148;-1.656;2024-01-25T11:09:51;19.00;95.80
26964;DHT22;14521;48.148;-1.656;2024-01-25T11:13:14;19.00;95.80
26964;DHT22;14521;48.148;-1.656;2024-01-25T11:16:37;19.00;95.70
26964;DHT22;14521;48.148;-1.656;2024-01-25T11:20:04;19.00;94.90
26964;DHT22;14521;48.148;-1.656;2024-01-25T11:23:31;18.90;95.30
26964;DHT22;14521;48.148;-1.656;2024-01-25T11:26:54;18.90;95.40
26964;DHT22;14521;48.148;-1.656;2024-01-25T11:30:20;19.00;95.10
26964;DHT22;14521;48.148;-1.656;2024-01-25T11:33:42;19.00;95.20
26964;DHT22;14521;48.148;-1.656;2024-01-25T11:37:04;19.10;95.70
26964;DHT22;14521;48.148;-1.656;2024-01-25T11:40:27;19.00;95.70
26964;DHT22;14521;48.148;-1.656;2024-01-25T11:43:59;19.10;95.60
26964;DHT22;14521;48.148;-1.656;2024-01-25T11:47:21;19.10;95.50
26964;DHT22;14521;48.148;-1.656;2024-01-25T11:50:43;19.00;95.50
26964;DHT22;14521;48.148;-1.656;2024-01-25T11:54:06;19.00;95.90
26964;DHT22;14521;48.148;-1.656;2024-01-25T11:57:31;19.00;95.80
26964;DHT22;14521;48.148;-1.656;2024-01-25T12:00:54;19.10;95.80
26964;DHT22;14521;48.148;-1.656;2024-01-25T12:04:17;19.00;95.90
26964;DHT22;14521;48.148;-1.656;2024-01-25T12:07:39;19.00;95.70
26964;DHT22;14521;48.148;-1.656;2024-01-25T12:11:04;19.10;95.30
26964;DHT22;14521;48.148;-1.656;2024-01-25T12:14:27;19.00;95.20
26964;DHT22;14521;48.148;-1.656;2024-01-25T12:17:50;19.10;95.60
26964;DHT22;14521;48.148;-1.656;2024-01-25T12:21:13;19.10;95.50
26964;DHT22;14521;48.148;-1.656;2024-01-25T12:24:35;19.10;96.80
26964;DHT22;14521;48.148;-1.656;2024-01-25T12:27:59;19.10;97.30
26964;DHT22;14521;48.148;-1.656;2024-01-25T12:31:22;19.10;97.80
26964;DHT22;14521;48.148;-1.656;2024-01-25T12:34:58;19.00;97.90
26964;DHT22;14521;48.148;-1.656;2024-01-25T12:38:21;19.00;97.70
26964;DHT22;14521;48.148;-1.656;2024-01-25T12:41:44;19.00;96.80
26964;DHT22;14521;48.148;-1.656;2024-01-25T12:45:06;19.10;97.20
26964;DHT22;14521;48.148;-1.656;2024-01-25T12:48:29;19.00;97.80
26964;DHT22;14521;48.148;-1.656;2024-01-25T12:51:52;19.00;97.00
26964;DHT22;14521;48.148;-1.656;2024-01-25T12:55:16;19.10;97.00
26964;DHT22;14521;48.148;-1.656;2024-01-25T12:58:38;19.00;97.60
26964;DHT22;14521;48.148;-1.656;2024-01-25T13:02:02;19.00;97.30
26964;DHT22;14521;48.148;-1.656;2024-01-25T13:05:25;19.00;97.50
26964;DHT22;14521;48.148;-1.656;2024-01-25T13:08:47;19.00;97.50
26964;DHT22;14521;48.148;-1.656;2024-01-25T13:12:10;19.00;97.60
26964;DHT22;14521;48.148;-1.656;2024-01-25T13:15:33;19.00;97.60
26964;DHT22;14521;48.148;-1.656;2024-01-25T13:18:55;19.00;97.50
26964;DHT22;14521;48.148;-1.656;2024-01-25T13:22:17;19.00;97.30
26964;DHT22;14521;48.148;-1.656;2024-01-25T13:25:43;19.00;96.80
26964;DHT22;14521;48.148;-1.656;2024-01-25T13:29:05;19.00;96.80
26964;DHT22;14521;48.148;-1.656;2024-01-25T13:32:27;19.00;96.70
26964;DHT22;14521;48.148;-1.656;2024-01-25T13:35:49;19.00;95.80
26964;DHT22;14521;48.148;-1.656;2024-01-25T13:39:12;18.90;95.40
26964;DHT22;14521;48.148;-1.656;2024-01-25T13:42:34;18.90;95.50
26964;DHT22;14521;48.148;-1.656;2024-01-25T13:45:56;18.90;95.50
26964;DHT22;14521;48.148;-1.656;2024-01-25T13:49:19;18.90;95.60
26964;DHT22;14521;48.148;-1.656;2024-01-25T13:52:42;18.80;95.50
26964;DHT22;14521;48.148;-1.656;2024-01-25T13:56:04;18.90;95.70
26964;DHT22;14521;48.148;-1.656;2024-01-25T13:59:26;18.90;95.70
26964;DHT22;14521;48.148;-1.656;2024-01-25T14:02:49;18.80;95.60
26964;DHT22;14521;48.148;-1.656;2024-01-25T14:06:11;18.80;95.60
26964;DHT22;14521;48.148;-1.656;2024-01-25T14:09:34;18.80;95.60
26964;DHT22;14521;48.148;-1.656;2024-01-25T14:12:57;18.70;95.50
26964;DHT22;14521;48.148;-1.656;2024-01-25T14:16:19;18.60;95.70
26964;DHT22;14521;48.148;-1.656;2024-01-25T14:19:44;18.50;95.80
26964;DHT22;14521;48.148;-1.656;2024-01-25T14:23:07;18.50;95.90
26964;DHT22;14521;48.148;-1.656;2024-01-25T14:26:29;18.50;95.90
26964;DHT22;14521;48.148;-1.656;2024-01-25T14:29:52;18.50;95.90
26964;DHT22;14521;48.148;-1.656;2024-01-25T14:33:14;18.50;95.90
26964;DHT22;14521;48.148;-1.656;2024-01-25T14:36:37;18.50;95.90
26964;DHT22;14521;48.148;-1.656;2024-01-25T14:39:59;18.50;95.90
26964;DHT22;14521;48.148;-1.656;2024-01-25T14:43:41;18.60;95.90
26964;DHT22;14521;48.148;-1.656;2024-01-25T14:47:04;18.50;95.80
26964;DHT22;14521;48.148;-1.656;2024-01-25T14:50:26;18.60;95.80
26964;DHT22;14521;48.148;-1.656;2024-01-25T14:53:49;18.60;95.80
26964;DHT22;14521;48.148;-1.656;2024-01-25T14:57:11;18.60;95.80
26964;DHT22;14521;48.148;-1.656;2024-01-25T15:00:34;18.60;95.80
26964;DHT22;14521;48.148;-1.656;2024-01-25T15:03:56;18.60;95.80
26964;DHT22;14521;48.148;-1.656;2024-01-25T15:07:20;18.60;96.30
26964;DHT22;14521;48.148;-1.656;2024-01-25T15:10:43;18.70;95.70
26964;DHT22;14521;48.148;-1.656;2024-01-25T15:14:06;18.70;95.80
26964;DHT22;14521;48.148;-1.656;2024-01-25T15:17:28;18.70;96.10
26964;DHT22;14521;48.148;-1.656;2024-01-25T15:20:50;18.80;96.00
26964;DHT22;14521;48.148;-1.656;2024-01-25T15:24:13;18.80;95.80
26964;DHT22;14521;48.148;-1.656;2024-01-25T15:27:35;18.90;95.80
26964;DHT22;14521;48.148;-1.656;2024-01-25T15:30:58;18.80;95.70
26964;DHT22;14521;48.148;-1.656;2024-01-25T15:34:20;18.90;95.90
26964;DHT22;14521;48.148;-1.656;2024-01-25T15:37:42;18.90;96.00
26964;DHT22;14521;48.148;-1.656;2024-01-25T15:41:05;18.90;96.00
26964;DHT22;14521;48.148;-1.656;2024-01-25T15:44:27;18.90;96.10
26964;DHT22;14521;48.148;-1.656;2024-01-25T15:47:50;19.00;96.10
26964;DHT22;14521;48.148;-1.656;2024-01-25T15:51:12;18.90;95.90
26964;DHT22;14521;48.148;-1.656;2024-01-25T15:54:35;18.90;96.10
26964;DHT22;14521;48.148;-1.656;2024-01-25T15:57:58;18.90;96.20
26964;DHT22;14521;48.148;-1.656;2024-01-25T16:01:21;18.90;96.30
26964;DHT22;14521;48.148;-1.656;2024-01-25T16:04:44;18.90;96.40
26964;DHT22;14521;48.148;-1.656;2024-01-25T16:08:06;18.90;96.50
26964;DHT22;14521;48.148;-1.656;2024-01-25T16:11:28;19.00;96.60
26964;DHT22;14521;48.148;-1.656;2024-01-25T16:14:51;19.00;96.60
26964;DHT22;14521;48.148;-1.656;2024-01-25T16:18:13;19.00;96.40
26964;DHT22;14521;48.148;-1.656;2024-01-25T16:21:35;19.00;96.40
26964;DHT22;14521;48.148;-1.656;2024-01-25T16:24:58;19.00;96.70
26964;DHT22;14521;48.148;-1.656;2024-01-25T16:28:20;19.00;96.90
26964;DHT22;14521;48.148;-1.656;2024-01-25T16:31:42;19.00;97.20
26964;DHT22;14521;48.148;-1.656;2024-01-25T16:35:05;19.00;97.10
26964;DHT22;14521;48.148;-1.656;2024-01-25T16:38:27;19.00;97.30
26964;DHT22;14521;48.148;-1.656;2024-01-25T16:41:50;19.00;97.00
26964;DHT22;14521;48.148;-1.656;2024-01-25T16:45:12;19.00;97.00
26964;DHT22;14521;48.148;-1.656;2024-01-25T16:48:34;19.00;97.00
26964;DHT22;14521;48.148;-1.656;2024-01-25T16:51:58;19.00;97.10
26964;DHT22;14521;48.148;-1.656;2024-01-25T16:55:21;19.00;97.00
26964;DHT22;14521;48.148;-1.656;2024-01-25T16:58:43;19.00;96.80
26964;DHT22;14521;48.148;-1.656;2024-01-25T17:02:06;19.00;96.40
26964;DHT22;14521;48.148;-1.656;2024-01-25T17:05:28;18.90;96.30
26964;DHT22;14521;48.148;-1.656;2024-01-25T17:08:50;18.80;96.30
26964;DHT22;14521;48.148;-1.656;2024-01-25T17:12:12;18.80;96.40
26964;DHT22;14521;48.148;-1.656;2024-01-25T17:15:37;18.70;96.50
26964;DHT22;14521;48.148;-1.656;2024-01-25T17:18:59;18.70;96.50
26964;DHT22;14521;48.148;-1.656;2024-01-25T17:22:22;18.70;96.50
26964;DHT22;14521;48.148;-1.656;2024-01-25T17:25:44;18.70;96.50
26964;DHT22;14521;48.148;-1.656;2024-01-25T17:29:06;18.70;96.60
26964;DHT22;14521;48.148;-1.656;2024-01-25T17:32:28;18.80;96.80
26964;DHT22;14521;48.148;-1.656;2024-01-25T17:35:51;18.80;96.90
26964;DHT22;14521;48.148;-1.656;2024-01-25T17:39:13;18.80;96.00
26964;DHT22;14521;48.148;-1.656;2024-01-25T17:42:35;18.90;96.90
26964;DHT22;14521;48.148;-1.656;2024-01-25T17:45:58;18.90;97.20
26964;DHT22;14521;48.148;-1.656;2024-01-25T17:49:20;19.00;97.70
26964;DHT22;14521;48.148;-1.656;2024-01-25T17:52:42;18.90;97.50
26964;DHT22;14521;48.148;-1.656;2024-01-25T17:56:05;19.00;97.60
26964;DHT22;14521;48.148;-1.656;2024-01-25T17:59:28;19.00;97.50
26964;DHT22;14521;48.148;-1.656;2024-01-25T18:02:50;19.00;97.60
26964;DHT22;14521;48.148;-1.656;2024-01-25T18:06:12;19.00;97.70
26964;DHT22;14521;48.148;-1.656;2024-01-25T18:09:34;19.00;97.70
26964;DHT22;14521;48.148;-1.656;2024-01-25T18:12:57;19.00;97.80
26964;DHT22;14521;48.148;-1.656;2024-01-25T18:16:19;19.00;97.80
26964;DHT22;14521;48.148;-1.656;2024-01-25T18:19:41;19.00;97.80
26964;DHT22;14521;48.148;-1.656;2024-01-25T18:23:04;19.00;97.80
26964;DHT22;14521;48.148;-1.656;2024-01-25T18:26:26;19.00;97.30
26964;DHT22;14521;48.148;-1.656;2024-01-25T18:29:49;18.90;96.40
26964;DHT22;14521;48.148;-1.656;2024-01-25T18:33:12;19.00;96.90
26964;DHT22;14521;48.148;-1.656;2024-01-25T18:36:34;19.00;96.50
26964;DHT22;14521;48.148;-1.656;2024-01-25T18:39:58;19.10;96.70
26964;DHT22;14521;48.148;-1.656;2024-01-25T18:43:23;19.10;97.20
26964;DHT22;14521;48.148;-1.656;2024-01-25T18:46:45;19.10;97.30
26964;DHT22;14521;48.148;-1.656;2024-01-25T18:50:08;19.10;97.30
26964;DHT22;14521;48.148;-1.656;2024-01-25T18:53:31;19.10;97.90
26964;DHT22;14521;48.148;-1.656;2024-01-25T18:56:53;19.10;99.90
26964;DHT22;14521;48.148;-1.656;2024-01-25T19:00:16;19.10;99.90
26964;DHT22;14521;48.148;-1.656;2024-01-25T19:03:39;19.20;99.90
26964;DHT22;14521;48.148;-1.656;2024-01-25T19:07:02;19.20;99.90
26964;DHT22;14521;48.148;-1.656;2024-01-25T19:10:24;19.20;99.90
26964;DHT22;14521;48.148;-1.656;2024-01-25T19:13:47;19.20;99.90
26964;DHT22;14521;48.148;-1.656;2024-01-25T19:17:09;19.20;99.90
26964;DHT22;14521;48.148;-1.656;2024-01-25T19:20:32;19.20;99.90
26964;DHT22;14521;48.148;-1.656;2024-01-25T19:23:54;19.20;98.50
26964;DHT22;14521;48.148;-1.656;2024-01-25T19:27:16;19.00;99.90
26964;DHT22;14521;48.148;-1.656;2024-01-25T19:30:38;19.00;99.90
26964;DHT22;14521;48.148;-1.656;2024-01-25T19:34:01;19.00;99.90
26964;DHT22;14521;48.148;-1.656;2024-01-25T19:37:23;19.10;99.90
26964;DHT22;14521;48.148;-1.656;2024-01-25T19:40:45;19.10;99.90
26964;DHT22;14521;48.148;-1.656;2024-01-25T19:44:08;19.10;99.90
26964;DHT22;14521;48.148;-1.656;2024-01-25T19:47:30;19.10;99.90
26964;DHT22;14521;48.148;-1.656;2024-01-25T19:50:53;19.20;99.90
26964;DHT22;14521;48.148;-1.656;2024-01-25T19:54:15;19.10;99.90
26964;DHT22;14521;48.148;-1.656;2024-01-25T19:57:37;19.20;99.90
26964;DHT22;14521;48.148;-1.656;2024-01-25T20:01:01;19.20;98.80
26964;DHT22;14521;48.148;-1.656;2024-01-25T20:04:24;19.10;98.90
26964;DHT22;14521;48.148;-1.656;2024-01-25T20:07:47;19.00;99.00
26964;DHT22;14521;48.148;-1.656;2024-01-25T20:11:09;19.00;99.80
26964;DHT22;14521;48.148;-1.656;2024-01-25T20:14:32;19.00;99.70
26964;DHT22;14521;48.148;-1.656;2024-01-25T20:17:54;19.00;99.30
26964;DHT22;14521;48.148;-1.656;2024-01-25T20:21:17;19.00;99.50
26964;DHT22;14521;48.148;-1.656;2024-01-25T20:24:39;19.00;99.40
26964;DHT22;14521;48.148;-1.656;2024-01-25T20:28:01;18.90;98.90
26964;DHT22;14521;48.148;-1.656;2024-01-25T20:31:24;18.90;99.40
26964;DHT22;14521;48.148;-1.656;2024-01-25T20:34:46;18.90;98.30
26964;DHT22;14521;48.148;-1.656;2024-01-25T20:38:12;18.90;98.50
26964;DHT22;14521;48.148;-1.656;2024-01-25T20:41:35;18.90;99.80
26964;DHT22;14521;48.148;-1.656;2024-01-25T20:44:57;18.90;99.50
26964;DHT22;14521;48.148;-1.656;2024-01-25T20:48:19;18.90;99.40
26964;DHT22;14521;48.148;-1.656;2024-01-25T20:51:42;18.80;99.50
26964;DHT22;14521;48.148;-1.656;2024-01-25T20:55:05;18.90;99.40